Skip Navigation LinksHome page > Weather > Current weather Skip Navigation Links

Current Weather

Bishop International, Flint, Mich.

For information only: do not use for flight planning or navigation.
Latest weather
Observation time Thursday, November 14, 2019 7:53 PM EST
Local time Thursday, November 14, 2019 8:11 PM EST
Flight conditions Marginal Visual Meteorological Conditions
Winds
Wind direction West-Southwest (250°)
Wind speed 9 mph
Visibility 10 mi.
Sky condition
Ceiling 2,200 ft. overcast
Cloud layer overcast 2,200 ft.
Temperature 32°F
Dewpoint 24°F
Altimeter 30.20 in.Hg
Derived measurements
Relative humidity 72%
Wind chill 24°F
Density altitude -1303 ft.
Sea-level pressure 30.23 in.Hg
Remarks
Automated weather observing station with precipitation discriminator.
METAR KFNT 150053Z 25008KT 10SM OVC022 00/M04 A3020 RMK AO2 SLP237 T00001044

Settings

Location code

InnerDrive.Weather 4.0.6770.0 Release CLR 4.0.30319.42000
Copyright ©2018 Inner Drive Technology. All rights reserved. Portions Copyright ©1986-2018 David Braverman.

Find weather

Site navigation


Skip Navigation Links

Place info

Page info

PayPal - The safer, easier way to pay online!

Return home.

Copyright ©2019 Inner Drive Technology. Purveyors of fine, hand-crafted computer software. Page printed 2019-11-15T01:11:47 UTC.